Crystal Wind — YJVR5 — position and weather

sailwx.info

Track history (hours):
 
Tides and Currents Weather Stations Pressure Air Temp Water Temp Dewpoint Dewpoint Depression Visibility Wind Speed Wind Dir Waves Ship Positions

Crystal Wind

Last reported at 2017-Nov-12 17:59 UTC. Time now 2017-Nov-22 07:03 UTC.
Position S 26°49' E 153°11'.
Warning: this ship's position is 9 days out of date.

Length 218 m; draft 12.5 m.

Type: Ship. MMSI: 576081000.

Date/timePositionNaut miles runAvg speedWind from/ knotsBaromVisibWave heightAir tempDewpointWater temp
2017-Nov-12 17:59S 26°49' E 153°11'4 8.8
2017-Nov-12 17:30S 26°53' E 153°10'611.6
2017-Nov-12 17:00S 26°58' E 153°14'510.6
2017-Nov-12 16:30S 27°03' E 153°17'611.2
2017-Nov-12 16:00S 27°07' E 153°21'612.0
2017-Nov-12 15:30S 27°13' E 153°20'612.3
2017-Nov-12 15:00S 27°17' E 153°15'510.0
2017-Nov-12 14:30S 27°21' E 153°11'3 6.1
2017-Nov-12 14:00S 27°23' E 153°09'0 0.0
2017-Nov-12 02:28S 27°23' E 153°10'0 0.0
2017-Nov-12 01:40S 27°23' E 153°10'0 0.0
2017-Nov-12 01:25S 27°23' E 153°10'0 0.0
2017-Nov-12 00:58S 27°23' E 153°10'0 0.0
2017-Nov-12 00:28S 27°23' E 153°10'0 0.0
2017-Nov-11 22:55S 27°23' E 153°10'0 0.0
2017-Nov-11 22:19S 27°23' E 153°10'0 0.0
2017-Nov-11 21:43S 27°23' E 153°10'0 0.0
2017-Nov-11 21:25S 27°23' E 153°10'0 0.0
2017-Nov-11 20:04S 27°23' E 153°10'0 0.0
2017-Nov-11 19:58S 27°23' E 153°10'0 0.0
2017-Nov-11 19:22S 27°23' E 153°10'0 0.0
2017-Nov-11 18:58S 27°23' E 153°10'0 0.0
2017-Nov-11 18:28S 27°23' E 153°10'0 0.0
2017-Nov-11 17:58S 27°23' E 153°10'0 0.0
2017-Nov-11 17:28S 27°23' E 153°10'0 0.0
2017-Nov-11 16:46S 27°23' E 153°10'0 0.0
2017-Nov-11 16:25S 27°23' E 153°10'0 0.0
2017-Nov-11 15:58S 27°23' E 153°10'0 0.0
2017-Nov-11 15:28S 27°23' E 153°10'0 0.0
2017-Nov-11 14:58S 27°23' E 153°10'0 0.0
2017-Nov-11 14:28S 27°23' E 153°10'0 0.0
2017-Nov-11 13:58S 27°23' E 153°10'0 0.0
2017-Nov-11 13:28S 27°23' E 153°10'0 0.0
2017-Nov-11 12:58S 27°23' E 153°10'0 0.0
2017-Nov-11 12:28S 27°23' E 153°10'0 0.0
2017-Nov-11 11:58S 27°23' E 153°10'0 0.0
2017-Nov-11 11:28S 27°23' E 153°10'0 0.0
2017-Nov-11 10:55S 27°23' E 153°10'0 0.0
2017-Nov-11 10:28S 27°23' E 153°10'0 0.0
2017-Nov-11 09:58S 27°23' E 153°10'0 0.0
2017-Nov-11 09:25S 27°23' E 153°10'0 0.0
2017-Nov-11 08:52S 27°23' E 153°10'0 0.0
2017-Nov-11 08:28S 27°23' E 153°10'0 0.0
2017-Nov-11 07:49S 27°23' E 153°10'0 0.0
2017-Nov-11 07:07S 27°23' E 153°10'0 0.0
2017-Nov-11 06:58S 27°23' E 153°10'0 0.0
2017-Nov-11 06:25S 27°23' E 153°10'0 0.3
2017-Nov-11 06:00S 27°23' E 153°09'2 4.6
2017-Nov-11 05:30S 27°21' E 153°11'510.7
2017-Nov-11 05:00S 27°17' E 153°14'712.3
2017-Nov-11 04:27S 27°13' E 153°20'612.8
2017-Nov-11 03:57S 27°06' E 153°19'511.5
2017-Nov-11 03:30S 27°03' E 153°16'713.3
2017-Nov-11 03:00S 26°56' E 153°13'14 1.7
2017-Nov-10 18:18S 26°42' E 153°15'0 0.1
2017-Nov-10 17:54S 26°42' E 153°15'0 0.0
2017-Nov-10 17:30S 26°42' E 153°15'0 0.0
2017-Nov-10 16:51S 26°42' E 153°15'0 0.0
2017-Nov-10 15:30S 26°42' E 153°15'  
Track history (hours):
 
Tides and Currents Weather Stations Pressure Air Temp Water Temp Dewpoint Dewpoint Depression Visibility Wind Speed Wind Dir Waves Ship Positions

Crystal Wind

Last reported at 2017-Nov-12 17:59 UTC. Time now 2017-Nov-22 07:03 UTC.
Position S 26°49' E 153°11'.
Warning: this ship's position is 9 days out of date.

Length 218 m; draft 12.5 m.

Type: Ship. MMSI: 576081000.

Date/timePositionNaut miles runAvg speedWind from/ knotsBaromVisibWave heightAir tempDewpointWater temp
2017-Nov-12 17:59S 26°49' E 153°11'4 8.8
2017-Nov-12 17:30S 26°53' E 153°10'611.6
2017-Nov-12 17:00S 26°58' E 153°14'510.6
2017-Nov-12 16:30S 27°03' E 153°17'611.2
2017-Nov-12 16:00S 27°07' E 153°21'612.0
2017-Nov-12 15:30S 27°13' E 153°20'612.3
2017-Nov-12 15:00S 27°17' E 153°15'510.0
2017-Nov-12 14:30S 27°21' E 153°11'3 6.1
2017-Nov-12 14:00S 27°23' E 153°09'0 0.0
2017-Nov-12 02:28S 27°23' E 153°10'0 0.0
2017-Nov-12 01:40S 27°23' E 153°10'0 0.0
2017-Nov-12 01:25S 27°23' E 153°10'0 0.0
2017-Nov-12 00:58S 27°23' E 153°10'0 0.0
2017-Nov-12 00:28S 27°23' E 153°10'0 0.0
2017-Nov-11 22:55S 27°23' E 153°10'0 0.0
2017-Nov-11 22:19S 27°23' E 153°10'0 0.0
2017-Nov-11 21:43S 27°23' E 153°10'0 0.0
2017-Nov-11 21:25S 27°23' E 153°10'0 0.0
2017-Nov-11 20:04S 27°23' E 153°10'0 0.0
2017-Nov-11 19:58S 27°23' E 153°10'0 0.0
2017-Nov-11 19:22S 27°23' E 153°10'0 0.0
2017-Nov-11 18:58S 27°23' E 153°10'0 0.0
2017-Nov-11 18:28S 27°23' E 153°10'0 0.0
2017-Nov-11 17:58S 27°23' E 153°10'0 0.0
2017-Nov-11 17:28S 27°23' E 153°10'0 0.0
2017-Nov-11 16:46S 27°23' E 153°10'0 0.0
2017-Nov-11 16:25S 27°23' E 153°10'0 0.0
2017-Nov-11 15:58S 27°23' E 153°10'0 0.0
2017-Nov-11 15:28S 27°23' E 153°10'0 0.0
2017-Nov-11 14:58S 27°23' E 153°10'0 0.0
2017-Nov-11 14:28S 27°23' E 153°10'0 0.0
2017-Nov-11 13:58S 27°23' E 153°10'0 0.0
2017-Nov-11 13:28S 27°23' E 153°10'0 0.0
2017-Nov-11 12:58S 27°23' E 153°10'0 0.0
2017-Nov-11 12:28S 27°23' E 153°10'0 0.0
2017-Nov-11 11:58S 27°23' E 153°10'0 0.0
2017-Nov-11 11:28S 27°23' E 153°10'0 0.0
2017-Nov-11 10:55S 27°23' E 153°10'0 0.0
2017-Nov-11 10:28S 27°23' E 153°10'0 0.0
2017-Nov-11 09:58S 27°23' E 153°10'0 0.0
2017-Nov-11 09:25S 27°23' E 153°10'0 0.0
2017-Nov-11 08:52S 27°23' E 153°10'0 0.0
2017-Nov-11 08:28S 27°23' E 153°10'0 0.0
2017-Nov-11 07:49S 27°23' E 153°10'0 0.0
2017-Nov-11 07:07S 27°23' E 153°10'0 0.0
2017-Nov-11 06:58S 27°23' E 153°10'0 0.0
2017-Nov-11 06:25S 27°23' E 153°10'0 0.3
2017-Nov-11 06:00S 27°23' E 153°09'2 4.6
2017-Nov-11 05:30S 27°21' E 153°11'510.7
2017-Nov-11 05:00S 27°17' E 153°14'712.3
2017-Nov-11 04:27S 27°13' E 153°20'612.8
2017-Nov-11 03:57S 27°06' E 153°19'511.5
2017-Nov-11 03:30S 27°03' E 153°16'713.3
2017-Nov-11 03:00S 26°56' E 153°13'14 1.7
2017-Nov-10 18:18S 26°42' E 153°15'0 0.1
2017-Nov-10 17:54S 26°42' E 153°15'0 0.0
2017-Nov-10 17:30S 26°42' E 153°15'0 0.0
2017-Nov-10 16:51S 26°42' E 153°15'0 0.0
2017-Nov-10 15:30S 26°42' E 153°15'  

Dump ship's entire track history